Time;durP1;ratioP1;P1;durP2;ratioP2;P2;SDS_P1;SDS_P2;PMS_P1;PMS_P2;Temp;Humidity;BMP_temperature;BMP_pressure;BME280_temperature;BME280_humidity;BME280_pressure;Samples;Min_cycle;Max_cycle;Signal;HPM_P1;HPM_P2
2022/01/12 00:02:05;;;;;;;142.10;53.17;;;3.50;99.90;;;;;;2161886;66;20264;-72
2022/01/12 00:04:47;;;;;;;130.57;55.47;;;3.50;99.90;;;;;;2161283;66;20428;-70
2022/01/12 00:07:30;;;;;;;159.40;61.30;;;3.50;99.90;;;;;;2146289;66;20292;-70
2022/01/12 00:10:11;;;;;;;156.23;60.20;;;3.50;99.90;;;;;;2159420;66;20215;-70
2022/01/12 00:12:54;;;;;;;158.30;60.05;;;3.50;99.90;;;;;;2141765;66;20327;-71
2022/01/12 00:15:39;;;;;;;193.95;65.60;;;3.50;99.90;;;;;;2145978;66;20276;-70
2022/01/12 00:18:21;;;;;;;183.40;65.07;;;3.60;99.90;;;;;;2139329;66;20171;-70
2022/01/12 00:21:03;;;;;;;187.80;66.03;;;3.50;99.90;;;;;;2119897;67;20348;-71
2022/01/12 00:23:46;;;;;;;177.45;60.58;;;3.50;99.90;;;;;;2125721;67;20184;-71
2022/01/12 00:35:16;;;;;;;203.02;68.18;;;3.50;99.90;;;;;;2140202;66;20794;-72
2022/01/12 00:38:05;;;;;;;194.02;66.45;;;3.60;99.90;;;;;;2131713;66;20332;-71
2022/01/12 00:40:56;;;;;;;175.20;63.10;;;3.60;99.90;;;;;;2139083;66;20197;-71
2022/01/12 00:43:44;;;;;;;175.68;63.90;;;3.60;99.90;;;;;;2144158;66;20641;-71
2022/01/12 00:46:31;;;;;;;193.82;66.97;;;3.60;99.90;;;;;;2135813;66;20163;-71
2022/01/12 00:49:14;;;;;;;183.40;63.78;;;3.60;99.90;;;;;;2148390;66;20381;-72
2022/01/12 00:51:58;;;;;;;;;;;3.60;99.90;;;;;;2163913;65;20358;-71
2022/01/12 00:54:40;;;;;;;164.82;60.10;;;3.60;99.90;;;;;;2162207;66;20589;-70
2022/01/12 00:57:25;;;;;;;172.27;61.77;;;3.70;99.90;;;;;;2167689;65;20328;-71
2022/01/12 01:00:07;;;;;;;194.57;64.30;;;3.70;99.90;;;;;;2169476;65;20188;-71
2022/01/12 01:02:49;;;;;;;203.65;65.57;;;3.70;99.90;;;;;;2165225;65;20305;-71
2022/01/12 01:05:33;;;;;;;250.35;75.97;;;3.70;99.90;;;;;;2177391;65;20168;-70
2022/01/12 01:08:15;;;;;;;185.68;63.92;;;3.70;99.90;;;;;;2171655;65;20232;-72
2022/01/12 01:10:56;;;;;;;216.27;65.63;;;3.70;99.90;;;;;;2163573;66;20391;-70
2022/01/12 01:13:46;;;;;;;183.18;63.38;;;3.70;99.90;;;;;;2160871;66;20261;-71
2022/01/12 01:25:45;;;;;;;178.75;58.75;;;3.80;99.90;;;;;;2131857;67;20764;-71
2022/01/12 01:28:27;;;;;;;272.83;78.20;;;3.80;99.90;;;;;;2137819;66;20396;-70
2022/01/12 01:31:09;;;;;;;270.63;75.70;;;3.80;99.90;;;;;;2139397;67;20742;-71
2022/01/12 01:33:51;;;;;;;304.35;77.45;;;3.80;99.90;;;;;;2149537;66;20181;-70
2022/01/12 01:36:54;;;;;;;205.13;58.40;;;3.90;99.90;;;;;;2153974;66;20347;-70
2022/01/12 01:39:39;;;;;;;257.23;72.55;;;3.90;99.90;;;;;;2154060;66;20322;-71
2022/01/12 01:42:29;;;;;;;330.15;80.63;;;3.90;99.90;;;;;;2154172;66;20237;-72
2022/01/12 01:54:19;;;;;;;153.30;49.47;;;4.00;99.90;;;;;;2144898;66;20246;-70
2022/01/12 01:57:02;;;;;;;158.77;50.17;;;4.00;99.90;;;;;;2131561;67;20404;-70
2022/01/12 01:59:45;;;;;;;215.82;61.10;;;4.10;99.90;;;;;;2135634;66;21038;-71
2022/01/12 02:02:30;;;;;;;160.00;53.53;;;4.30;99.90;;;;;;2133529;66;20292;-70
2022/01/12 02:05:12;;;;;;;184.07;56.50;;;4.10;99.90;;;;;;2127527;67;20247;-70
2022/01/12 02:07:55;;;;;;;213.52;61.30;;;4.10;99.90;;;;;;2146347;66;20339;-71
2022/01/12 02:10:40;;;;;;;193.75;57.33;;;4.10;99.90;;;;;;2153798;66;20236;-71
2022/01/12 02:13:23;;;;;;;196.02;60.38;;;4.50;99.90;;;;;;2146414;66;20296;-70
2022/01/12 02:16:11;;;;;;;173.93;53.45;;;4.10;99.90;;;;;;2155238;66;20914;-70
2022/01/12 02:37:13;;;;;;;130.80;47.08;;;4.20;99.90;;;;;;2131390;67;20282;-70
2022/01/12 02:39:58;;;;;;;151.45;50.38;;;4.20;99.90;;;;;;2124966;67;20235;-71
2022/01/12 02:42:44;;;;;;;181.85;55.20;;;4.20;99.90;;;;;;2121186;67;20243;-70
2022/01/12 02:54:08;;;;;;;109.30;40.40;;;4.30;99.90;;;;;;2153006;66;20621;-70
2022/01/12 02:56:50;;;;;;;143.10;47.15;;;4.60;99.90;;;;;;2163382;66;20227;-71
2022/01/12 02:59:32;;;;;;;120.53;44.95;;;4.30;99.90;;;;;;2162169;65;20235;-71
2022/01/12 03:02:30;;;;;;;134.88;48.00;;;4.30;99.90;;;;;;2149990;66;20203;-70
2022/01/12 03:08:14;;;;;;;134.25;45.92;;;4.30;99.90;;;;;;2150201;66;20378;-69
2022/01/12 03:11:01;;;;;;;105.05;42.70;;;4.10;99.90;;;;;;2153365;66;20201;-70
2022/01/12 03:13:47;;;;;;;135.73;45.55;;;4.00;99.90;;;;;;2157042;66;20566;-70
2022/01/12 03:16:29;;;;;;;125.07;45.42;;;3.80;99.90;;;;;;2164419;65;20794;-71
2022/01/12 03:19:11;;;;;;;114.40;43.25;;;3.70;99.90;;;;;;2169132;65;20252;-72
2022/01/12 03:21:56;;;;;;;132.48;48.35;;;3.70;99.90;;;;;;2179441;65;20278;-70
2022/01/12 03:24:39;;;;;;;130.80;48.00;;;4.10;99.90;;;;;;2181884;65;20345;-70
2022/01/12 03:27:25;;;;;;;140.80;48.00;;;3.70;99.90;;;;;;2181510;65;20310;-71
2022/01/12 03:30:09;;;;;;;172.52;53.75;;;3.40;99.90;;;;;;2167431;66;20313;-71
2022/01/12 03:33:07;;;;;;;281.88;63.83;;;3.30;99.90;;;;;;2154110;66;20268;-70
2022/01/12 03:36:01;;;;;;;402.77;68.07;;;3.30;99.90;;;;;;2156488;66;20181;-70
2022/01/12 03:38:45;;;;;;;463.27;77.32;;;3.40;99.90;;;;;;2153034;66;20202;-70
2022/01/12 03:41:30;;;;;;;;;;;3.30;99.90;;;;;;2166965;65;20288;-70
2022/01/12 03:44:14;;;;;;;525.30;87.72;;;3.30;99.90;;;;;;2156666;65;20128;-70
2022/01/12 03:46:55;;;;;;;430.10;73.03;;;3.20;99.90;;;;;;2161645;66;20176;-70
2022/01/12 03:49:38;;;;;;;394.00;67.53;;;3.20;99.90;;;;;;2143358;66;20674;-72
2022/01/12 03:52:23;;;;;;;402.23;79.43;;;3.10;99.90;;;;;;2140197;66;20715;-70
2022/01/12 03:55:09;;;;;;;447.30;71.85;;;3.00;99.90;;;;;;2153046;66;20967;-71
2022/01/12 03:57:51;;;;;;;451.45;74.00;;;3.00;99.90;;;;;;2158250;66;20327;-71
2022/01/12 04:00:35;;;;;;;483.52;84.65;;;2.90;99.90;;;;;;2155020;66;20285;-70
2022/01/12 04:03:20;;;;;;;466.73;80.38;;;2.90;99.90;;;;;;2160660;66;20386;-70
2022/01/12 04:09:05;;;;;;;350.40;62.25;;;2.80;99.90;;;;;;2128665;67;20289;-71
2022/01/12 04:11:51;;;;;;;509.08;80.50;;;3.20;99.90;;;;;;2131903;67;20191;-71
2022/01/12 04:14:36;;;;;;;470.30;78.72;;;2.80;99.90;;;;;;2125231;67;21140;-71
2022/01/12 04:17:19;;;;;;;460.08;73.93;;;2.80;99.90;;;;;;2125799;67;20506;-71
2022/01/12 04:20:04;;;;;;;225.25;52.55;;;2.70;99.90;;;;;;2127139;67;20191;-70
2022/01/12 04:25:51;;;;;;;530.40;83.60;;;2.60;99.90;;;;;;2131427;67;20784;-71
2022/01/12 04:28:38;;;;;;;536.22;87.75;;;2.60;99.90;;;;;;2130900;67;20759;-70
2022/01/12 04:31:20;;;;;;;379.23;67.72;;;2.60;99.90;;;;;;2141016;66;20328;-71
2022/01/12 04:34:03;;;;;;;464.50;78.53;;;2.60;99.90;;;;;;2131111;67;20771;-72
2022/01/12 04:36:45;;;;;;;374.90;69.50;;;2.50;99.90;;;;;;2117227;67;20232;-70
2022/01/12 04:39:29;;;;;;;513.65;88.50;;;2.50;99.90;;;;;;2110455;67;20481;-70
2022/01/12 04:42:16;;;;;;;265.45;57.63;;;2.40;99.90;;;;;;2119894;67;20292;-71
2022/01/12 04:45:03;;;;;;;330.83;58.05;;;2.40;99.90;;;;;;2127065;67;20676;-71
2022/01/12 04:47:59;;;;;;;389.50;69.32;;;2.50;99.90;;;;;;2132291;67;20196;-71
2022/01/12 04:50:44;;;;;;;376.35;65.35;;;2.40;99.90;;;;;;2136388;67;20188;-71
2022/01/12 04:53:27;;;;;;;360.55;65.20;;;2.30;99.90;;;;;;2126799;67;20802;-71
2022/01/12 04:56:20;;;;;;;312.20;57.78;;;2.20;99.90;;;;;;2131205;67;20247;-71
2022/01/12 04:59:28;;;;;;;;;;;2.20;99.90;;;;;;2122032;67;20418;-71
2022/01/12 05:14:00;;;;;;;163.88;38.42;;;2.00;99.90;;;;;;2116813;67;20778;-71
2022/01/12 05:16:45;;;;;;;152.73;33.92;;;2.00;99.90;;;;;;2123364;67;20180;-70
2022/01/12 05:19:38;;;;;;;258.17;40.33;;;1.90;99.90;;;;;;2129064;67;20183;-72
2022/01/12 05:22:20;;;;;;;250.75;49.60;;;1.90;99.90;;;;;;2145217;66;20366;-70
2022/01/12 05:25:02;;;;;;;124.40;29.20;;;1.90;99.90;;;;;;2142603;66;20170;-72
2022/01/12 05:27:46;;;;;;;214.20;37.15;;;1.80;99.90;;;;;;2157036;66;20203;-69
2022/01/12 05:30:28;;;;;;;150.82;28.95;;;1.70;99.90;;;;;;2149167;66;20338;-71
2022/01/12 05:33:14;;;;;;;146.40;30.90;;;1.70;99.90;;;;;;2145392;66;20330;-71
2022/01/12 05:36:03;;;;;;;192.13;37.58;;;1.70;99.90;;;;;;2144769;66;20249;-70
2022/01/12 05:38:48;;;;;;;253.40;41.63;;;1.60;99.90;;;;;;2144679;66;20322;-71
2022/01/12 05:41:29;;;;;;;258.20;52.90;;;1.60;99.90;;;;;;2147012;66;20232;-71
2022/01/12 05:44:11;;;;;;;303.63;50.17;;;1.50;99.90;;;;;;2157894;66;20343;-71
2022/01/12 05:46:55;;;;;;;247.00;42.35;;;1.50;99.90;;;;;;2162916;66;20295;-70
2022/01/12 05:49:45;;;;;;;211.55;32.53;;;1.40;99.90;;;;;;2161260;66;20181;-71
2022/01/12 05:52:30;;;;;;;243.98;43.92;;;1.40;99.90;;;;;;2147902;66;20169;-69
2022/01/12 05:55:13;;;;;;;292.45;58.10;;;1.30;99.90;;;;;;2168982;65;20321;-70
2022/01/12 05:57:56;;;;;;;205.07;34.95;;;1.30;99.90;;;;;;2161122;66;20727;-70
2022/01/12 06:00:41;;;;;;;254.02;39.97;;;1.30;99.90;;;;;;2161047;66;20180;-71
2022/01/12 06:03:23;;;;;;;169.20;35.58;;;1.30;99.90;;;;;;2152701;66;20315;-70
2022/01/12 06:06:05;;;;;;;180.52;42.80;;;1.20;99.90;;;;;;2145770;66;20348;-70
2022/01/12 06:08:46;;;;;;;141.80;33.47;;;1.30;99.90;;;;;;2153198;66;20217;-70
2022/01/12 06:11:28;;;;;;;218.27;38.78;;;1.30;99.90;;;;;;2153676;66;20386;-71
2022/01/12 06:14:12;;;;;;;228.82;53.70;;;1.30;99.90;;;;;;2146758;66;20260;-71
2022/01/12 06:16:56;;;;;;;192.60;37.05;;;1.30;99.90;;;;;;2160766;66;20333;-71
2022/01/12 06:19:40;;;;;;;245.68;47.42;;;1.30;99.90;;;;;;2142182;66;20222;-70
2022/01/12 06:22:24;;;;;;;200.40;42.67;;;1.30;99.90;;;;;;2117886;67;20237;-70
2022/01/12 06:25:15;;;;;;;289.92;57.38;;;1.30;99.90;;;;;;2113982;67;20181;-71
2022/01/12 06:28:22;;;;;;;197.63;41.05;;;1.30;99.90;;;;;;2121681;67;20204;-72
2022/01/12 06:31:13;;;;;;;225.73;41.25;;;1.30;99.90;;;;;;2124577;67;20313;-69
2022/01/12 06:34:02;;;;;;;239.05;47.80;;;1.40;99.90;;;;;;2141244;66;20186;-70
2022/01/12 06:36:46;;;;;;;198.70;39.67;;;1.40;99.90;;;;;;2143586;66;20261;-70
2022/01/12 06:39:28;;;;;;;361.50;74.38;;;1.40;99.90;;;;;;2153106;66;20218;-71
2022/01/12 06:42:09;;;;;;;204.82;37.20;;;1.40;99.90;;;;;;2147821;66;20745;-70
2022/01/12 06:44:51;;;;;;;168.52;38.45;;;1.30;99.90;;;;;;2129731;67;20180;-71
2022/01/12 06:47:33;;;;;;;164.25;34.90;;;1.30;99.90;;;;;;2128496;67;20355;-70
2022/01/12 06:50:15;;;;;;;274.67;49.75;;;1.30;99.90;;;;;;2136768;66;20207;-71
2022/01/12 06:52:56;;;;;;;249.70;39.05;;;1.30;99.90;;;;;;2151055;66;20280;-71
2022/01/12 06:55:38;;;;;;;249.45;47.35;;;1.40;99.90;;;;;;2153557;66;20174;-71
2022/01/12 06:58:21;;;;;;;312.65;54.97;;;1.40;99.90;;;;;;2140543;66;20303;-70
2022/01/12 07:01:02;;;;;;;191.82;31.52;;;1.40;99.90;;;;;;2144961;66;20170;-70
2022/01/12 07:03:45;;;;;;;247.85;40.10;;;1.30;99.90;;;;;;2143310;66;20778;-71
2022/01/12 07:06:27;;;;;;;260.00;40.97;;;1.30;99.90;;;;;;2152163;66;20801;-70
2022/01/12 07:09:12;;;;;;;247.85;48.42;;;1.30;99.90;;;;;;2160852;66;20324;-71
2022/01/12 07:11:53;;;;;;;113.47;29.25;;;1.20;99.90;;;;;;2183390;65;20348;-70
2022/01/12 07:14:35;;;;;;;273.80;40.67;;;1.30;99.90;;;;;;2185274;65;20200;-71
2022/01/12 07:17:17;;;;;;;228.75;44.72;;;1.30;99.90;;;;;;2180089;65;20776;-70
2022/01/12 07:19:59;;;;;;;254.57;45.55;;;1.30;99.90;;;;;;2175568;65;20682;-71
2022/01/12 07:22:41;;;;;;;303.52;55.90;;;1.30;99.90;;;;;;2184472;65;20344;-71
2022/01/12 07:25:23;;;;;;;149.18;31.02;;;1.30;99.90;;;;;;2173233;65;20380;-71
2022/01/12 07:28:08;;;;;;;209.63;33.63;;;1.50;99.90;;;;;;2157574;66;20298;-71
2022/01/12 07:30:50;;;;;;;174.27;36.47;;;1.30;99.90;;;;;;2144726;66;20908;-71
2022/01/12 07:33:32;;;;;;;180.20;34.53;;;1.30;99.90;;;;;;2159167;66;20172;-70
2022/01/12 07:36:22;;;;;;;232.30;47.00;;;1.30;99.90;;;;;;2158536;66;20235;-71
2022/01/12 07:39:08;;;;;;;124.45;29.23;;;1.20;99.90;;;;;;2151206;66;20299;-71
2022/01/12 07:41:53;;;;;;;134.38;32.88;;;1.20;99.90;;;;;;2143438;66;20427;-71
2022/01/12 07:44:35;;;;;;;184.68;43.72;;;1.10;99.90;;;;;;2139611;66;20327;-71
2022/01/12 07:47:17;;;;;;;161.45;38.28;;;1.10;99.90;;;;;;2136767;66;20171;-70
2022/01/12 07:50:18;;;;;;;149.00;36.60;;;1.00;99.90;;;;;;2136370;66;20275;-70
2022/01/12 07:53:03;;;;;;;177.18;43.42;;;1.00;99.90;;;;;;2120866;67;20340;-70
2022/01/12 07:55:45;;;;;;;148.50;37.97;;;0.90;99.90;;;;;;2123938;67;20564;-70
2022/01/12 07:58:27;;;;;;;184.10;44.13;;;0.90;99.90;;;;;;2128635;67;20242;-70
2022/01/12 08:01:13;;;;;;;108.75;27.45;;;1.00;99.90;;;;;;2130975;66;20296;-70
2022/01/12 08:04:04;;;;;;;129.77;28.90;;;0.90;99.90;;;;;;2147765;66;20682;-71
2022/01/12 08:06:49;;;;;;;118.00;28.77;;;0.90;99.90;;;;;;2144598;66;20781;-70
2022/01/12 08:09:31;;;;;;;174.25;27.52;;;0.90;99.90;;;;;;2143374;66;20529;-70
2022/01/12 08:12:14;;;;;;;96.00;28.55;;;0.80;99.90;;;;;;2136663;66;20312;-69
2022/01/12 08:14:59;;;;;;;80.32;18.67;;;0.80;99.90;;;;;;2121138;67;20318;-69
2022/01/12 08:17:40;;;;;;;128.30;26.85;;;0.90;99.90;;;;;;2135239;67;20230;-70
2022/01/12 08:20:26;;;;;;;143.57;30.27;;;0.90;99.90;;;;;;2136515;66;20676;-70
2022/01/12 08:23:10;;;;;;;174.38;28.77;;;0.90;99.90;;;;;;2122762;67;21587;-69
2022/01/12 08:25:54;;;;;;;151.63;34.20;;;0.90;99.90;;;;;;2161666;65;20698;-71
2022/01/12 08:28:36;;;;;;;172.02;36.13;;;1.00;99.90;;;;;;2171124;65;20420;-70
2022/01/12 08:31:21;;;;;;;100.90;30.30;;;1.00;99.90;;;;;;2179944;65;20495;-72
2022/01/12 08:34:03;;;;;;;77.78;22.05;;;1.00;99.90;;;;;;2158286;66;20759;-69
2022/01/12 08:36:46;;;;;;;111.93;27.38;;;1.00;99.90;;;;;;2165419;65;20273;-70
2022/01/12 08:39:31;;;;;;;150.10;29.65;;;1.00;99.90;;;;;;2166416;66;20204;-69
2022/01/12 08:42:12;;;;;;;114.47;26.63;;;1.10;99.90;;;;;;2159265;66;20816;-70
2022/01/12 08:44:59;;;;;;;120.20;27.55;;;1.10;99.90;;;;;;2158641;66;20822;-70
2022/01/12 08:47:41;;;;;;;52.90;22.80;;;1.10;99.90;;;;;;2153641;66;20191;-70
2022/01/12 08:50:23;;;;;;;106.00;26.50;;;1.20;99.90;;;;;;2151768;66;20709;-69
2022/01/12 08:53:06;;;;;;;138.82;29.00;;;1.20;99.90;;;;;;2157740;66;20798;-69
2022/01/12 08:55:49;;;;;;;89.43;27.42;;;1.30;99.90;;;;;;2158553;66;20966;-70
2022/01/12 08:58:34;;;;;;;79.13;21.63;;;1.30;99.90;;;;;;2158619;66;20341;-71
2022/01/12 09:01:16;;;;;;;102.93;26.05;;;1.30;99.90;;;;;;2158286;66;20268;-68
2022/01/12 09:03:58;;;;;;;132.02;26.30;;;1.40;99.90;;;;;;2151430;66;20679;-70
2022/01/12 09:06:40;;;;;;;109.78;23.63;;;1.40;99.90;;;;;;2151412;66;20342;-68
2022/01/12 09:09:22;;;;;;;191.98;27.75;;;1.50;99.90;;;;;;2159577;66;20330;-70
2022/01/12 09:12:04;;;;;;;154.75;22.95;;;1.60;99.90;;;;;;2175771;65;20903;-70
2022/01/12 09:14:46;;;;;;;170.10;23.80;;;1.50;99.90;;;;;;2166903;65;20328;-70
2022/01/12 09:17:28;;;;;;;164.15;21.80;;;1.50;99.90;;;;;;2167424;65;20324;-71
2022/01/12 09:20:12;;;;;;;175.63;24.85;;;1.60;99.90;;;;;;2173824;65;20359;-70
2022/01/12 09:22:54;;;;;;;109.78;21.40;;;1.60;99.90;;;;;;2150021;66;20340;-70
2022/01/12 09:25:39;;;;;;;169.05;26.08;;;1.60;99.90;;;;;;2147674;66;20170;-70
2022/01/12 09:28:20;;;;;;;144.13;23.10;;;1.70;99.90;;;;;;2158086;66;20546;-76
2022/01/12 09:31:03;;;;;;;126.88;21.92;;;1.70;99.90;;;;;;2151939;66;20331;-79
2022/01/12 09:33:50;;;;;;;175.30;21.95;;;1.90;99.90;;;;;;2164443;65;20314;-75
2022/01/12 09:36:35;;;;;;;157.80;19.42;;;1.80;99.90;;;;;;2160025;66;20172;-77
2022/01/12 09:39:18;;;;;;;115.10;19.88;;;1.80;99.90;;;;;;2151456;66;20805;-75
2022/01/12 09:42:04;;;;;;;155.10;24.45;;;1.90;99.90;;;;;;2159366;66;20706;-78
2022/01/12 09:44:49;;;;;;;111.78;19.67;;;1.90;99.90;;;;;;2152885;66;20377;-72
2022/01/12 09:47:31;;;;;;;86.57;17.63;;;2.00;99.90;;;;;;2161046;66;20194;-77
2022/01/12 09:50:22;;;;;;;88.05;16.95;;;2.10;99.90;;;;;;2160750;66;20386;-73
2022/01/12 09:53:10;;;;;;;66.50;12.68;;;2.10;99.90;;;;;;2160187;66;20644;-74
2022/01/12 09:55:57;;;;;;;98.25;17.92;;;2.20;99.90;;;;;;2148742;66;20476;-77
2022/01/12 09:58:43;;;;;;;120.43;18.27;;;2.70;99.90;;;;;;2150416;66;20178;-76
2022/01/12 10:01:33;;;;;;;114.97;21.00;;;2.30;99.90;;;;;;2144010;66;20507;-76
2022/01/12 10:04:19;;;;;;;106.30;18.67;;;3.00;99.90;;;;;;2132701;67;20219;-75
2022/01/12 10:07:05;;;;;;;138.63;25.95;;;2.30;99.90;;;;;;2133019;67;20358;-76
2022/01/12 10:09:49;;;;;;;148.93;24.73;;;2.40;99.90;;;;;;2132420;67;20179;-76
2022/01/12 10:12:31;;;;;;;115.80;20.58;;;2.40;99.90;;;;;;2131377;67;20705;-76
2022/01/12 10:15:14;;;;;;;73.60;14.93;;;2.60;99.90;;;;;;2118912;67;20366;-74
2022/01/12 10:18:02;;;;;;;146.35;19.05;;;2.60;99.90;;;;;;2140002;66;20170;-73
2022/01/12 10:20:46;;;;;;;115.22;17.83;;;2.70;99.90;;;;;;2147653;66;20297;-74
2022/01/12 10:23:28;;;;;;;80.85;14.77;;;2.80;99.90;;;;;;2151061;66;20205;-77
2022/01/12 10:26:11;;;;;;;95.30;17.13;;;2.90;99.90;;;;;;2145911;66;20209;-76
2022/01/12 10:29:04;;;;;;;87.68;16.67;;;3.50;99.90;;;;;;2145651;66;20782;-74
2022/01/12 10:31:58;;;;;;;101.20;19.48;;;3.00;99.90;;;;;;2131274;66;20195;-73
2022/01/12 10:34:46;;;;;;;119.68;19.33;;;3.20;99.90;;;;;;2148998;66;20220;-74
2022/01/12 10:37:31;;;;;;;62.78;14.60;;;3.20;99.90;;;;;;2169138;65;20242;-73
2022/01/12 10:40:14;;;;;;;92.45;15.68;;;3.30;99.90;;;;;;2152733;66;20305;-72
2022/01/12 10:42:59;;;;;;;66.28;13.85;;;3.50;99.90;;;;;;2164661;66;20285;-71
2022/01/12 10:45:48;;;;;;;72.72;14.80;;;3.60;99.90;;;;;;2163300;66;20177;-74
2022/01/12 10:48:39;;;;;;;57.58;11.55;;;3.70;99.90;;;;;;2168747;65;20172;-72
2022/01/12 10:51:23;;;;;;;67.50;12.52;;;3.80;99.90;;;;;;2175849;65;20222;-73
2022/01/12 10:54:05;;;;;;;43.10;10.23;;;3.90;99.90;;;;;;2173448;65;20188;-75
2022/01/12 10:56:51;;;;;;;39.63;9.80;;;3.90;99.90;;;;;;2172982;65;20998;-72
2022/01/12 10:59:37;;;;;;;58.38;10.30;;;3.90;99.90;;;;;;2180199;65;20609;-72
2022/01/12 11:02:20;;;;;;;36.38;8.70;;;4.00;99.90;;;;;;2183091;65;20265;-72
2022/01/12 11:05:07;;;;;;;40.92;9.95;;;4.00;99.90;;;;;;2168356;65;20714;-72
2022/01/12 11:07:50;;;;;;;34.38;9.55;;;4.10;99.90;;;;;;2176245;65;20371;-74
2022/01/12 11:10:33;;;;;;;54.55;12.45;;;4.10;99.90;;;;;;2174984;65;20298;-73
2022/01/12 11:13:16;;;;;;;52.30;11.70;;;4.20;99.90;;;;;;2183718;65;20258;-70
2022/01/12 11:16:04;;;;;;;77.72;12.40;;;4.20;99.90;;;;;;2194913;65;20314;-73
2022/01/12 11:18:48;;;;;;;57.67;12.85;;;4.30;99.90;;;;;;2187995;65;20255;-75
2022/01/12 11:21:36;;;;;;;42.50;12.68;;;4.40;99.90;;;;;;2182138;65;20204;-77
2022/01/12 11:24:19;;;;;;;41.15;11.25;;;4.40;99.90;;;;;;2176718;65;20266;-74
2022/01/12 11:27:06;;;;;;;31.23;12.38;;;4.40;99.90;;;;;;2190427;65;20238;-73
2022/01/12 11:29:51;;;;;;;46.25;10.82;;;4.50;99.90;;;;;;2186334;65;20484;-72
2022/01/12 11:32:33;;;;;;;60.65;13.70;;;4.60;99.90;;;;;;2183490;65;21133;-77
2022/01/12 11:35:26;;;;;;;30.33;10.88;;;4.60;99.90;;;;;;2186792;65;20773;-76
2022/01/12 11:38:18;;;;;;;51.53;11.85;;;4.70;99.90;;;;;;2174932;65;21055;-75
2022/01/12 11:41:08;;;;;;;27.95;10.02;;;4.80;99.90;;;;;;2175126;65;20310;-74
2022/01/12 11:44:10;;;;;;;26.02;10.07;;;4.90;99.90;;;;;;2177566;65;20229;-73
2022/01/12 11:46:55;;;;;;;30.65;9.73;;;5.00;99.90;;;;;;2189198;65;20257;-74
2022/01/12 11:49:36;;;;;;;23.45;9.38;;;5.30;99.90;;;;;;2184670;65;20222;-71
2022/01/12 11:52:24;;;;;;;27.00;9.65;;;5.20;99.90;;;;;;2190939;65;20302;-75
2022/01/12 11:55:09;;;;;;;41.88;11.18;;;5.20;99.90;;;;;;2181113;65;20220;-74
2022/01/12 11:57:59;;;;;;;30.23;9.07;;;5.20;99.90;;;;;;2170751;65;20321;-75
2022/01/12 12:00:49;;;;;;;33.80;11.52;;;5.20;99.90;;;;;;2167009;65;20235;-75
2022/01/12 12:03:31;;;;;;;42.50;11.90;;;5.20;99.90;;;;;;2156682;66;20385;-74
2022/01/12 12:06:21;;;;;;;38.70;11.90;;;5.20;99.90;;;;;;2144986;66;20401;-75
2022/01/12 12:09:10;;;;;;;25.83;12.25;;;5.30;99.90;;;;;;2130627;67;20306;-74
2022/01/12 12:11:52;;;;;;;26.48;11.60;;;5.30;99.90;;;;;;2131248;67;20223;-74
2022/01/12 12:14:34;;;;;;;29.65;12.13;;;5.40;99.90;;;;;;2131343;67;20238;-73
2022/01/12 12:17:17;;;;;;;31.77;11.88;;;5.60;99.90;;;;;;2125599;67;20260;-73
2022/01/12 12:20:00;;;;;;;32.35;12.50;;;6.10;99.90;;;;;;2130820;67;20432;-73
2022/01/12 12:22:44;;;;;;;38.08;12.98;;;5.60;99.90;;;;;;2136170;66;20359;-74
2022/01/12 12:25:28;;;;;;;26.77;11.80;;;5.60;99.90;;;;;;2124657;67;20941;-75
2022/01/12 12:28:15;;;;;;;24.35;12.68;;;5.60;99.90;;;;;;2144844;66;20617;-77
2022/01/12 12:30:59;;;;;;;34.90;13.60;;;5.70;99.90;;;;;;2136063;66;20179;-72
2022/01/12 12:33:43;;;;;;;30.73;12.63;;;6.40;99.90;;;;;;2146123;66;20257;-71
2022/01/12 12:36:25;;;;;;;34.65;12.98;;;5.70;99.90;;;;;;2146839;66;20308;-74
2022/01/12 12:39:32;;;;;;;33.65;13.98;;;5.90;99.90;;;;;;2130084;67;20190;-72
2022/01/12 12:42:15;;;;;;;29.05;15.90;;;5.90;99.90;;;;;;2120007;67;20368;-72
2022/01/12 12:45:02;;;;;;;33.67;15.68;;;5.90;99.90;;;;;;2119370;67;20749;-73
2022/01/12 12:47:49;;;;;;;26.20;13.15;;;6.00;99.90;;;;;;2123842;67;20225;-74
2022/01/12 12:50:36;;;;;;;29.70;12.73;;;6.00;99.90;;;;;;2128815;67;20256;-70
2022/01/12 12:53:27;;;;;;;29.42;12.23;;;6.10;99.90;;;;;;2128351;67;20239;-72
2022/01/12 12:56:12;;;;;;;27.98;12.82;;;6.20;99.90;;;;;;2129732;67;20287;-74
2022/01/12 12:58:56;;;;;;;31.73;13.40;;;6.10;99.90;;;;;;2139208;67;20171;-75
2022/01/12 13:01:39;;;;;;;28.05;12.05;;;6.20;99.90;;;;;;2142674;66;20258;-75
2022/01/12 13:04:23;;;;;;;24.05;12.38;;;6.20;99.90;;;;;;2138355;66;20345;-75
2022/01/12 13:07:36;;;;;;;25.70;12.25;;;6.30;99.90;;;;;;2149160;66;20258;-76
2022/01/12 13:10:19;;;;;;;28.27;11.02;;;6.30;99.90;;;;;;2157551;66;20316;-76
2022/01/12 13:13:05;;;;;;;28.52;10.55;;;6.30;99.90;;;;;;2145262;66;20295;-75
2022/01/12 13:15:51;;;;;;;25.20;10.70;;;6.30;99.90;;;;;;2139072;66;20425;-76
2022/01/12 13:18:42;;;;;;;21.48;10.23;;;6.20;99.90;;;;;;2123374;67;20467;-73
2022/01/12 13:21:27;;;;;;;21.17;10.57;;;6.30;99.90;;;;;;2127941;67;20420;-74
2022/01/12 13:24:12;;;;;;;22.35;11.02;;;6.30;99.90;;;;;;2136222;66;20180;-73
2022/01/12 13:26:55;;;;;;;22.95;10.48;;;6.20;99.90;;;;;;2138914;66;20766;-75
2022/01/12 13:29:48;;;;;;;23.40;10.20;;;6.20;99.90;;;;;;2139417;66;20199;-75
2022/01/12 13:32:30;;;;;;;26.00;11.73;;;6.20;99.90;;;;;;2148891;66;20213;-75
2022/01/12 13:35:12;;;;;;;18.25;10.35;;;6.30;99.90;;;;;;2160798;65;20286;-75
2022/01/12 13:37:56;;;;;;;21.85;10.85;;;6.10;99.90;;;;;;2156124;66;20326;-73
2022/01/12 13:40:41;;;;;;;24.10;11.57;;;6.10;99.90;;;;;;2146733;66;20217;-73
2022/01/12 13:43:25;;;;;;;20.65;10.45;;;6.10;99.90;;;;;;2146200;66;20175;-73
2022/01/12 13:46:14;;;;;;;18.55;10.25;;;6.20;99.90;;;;;;2139508;66;20279;-73
2022/01/12 13:52:01;;;;;;;17.55;9.18;;;6.10;99.90;;;;;;2151819;66;20186;-73
2022/01/12 13:54:44;;;;;;;19.15;10.60;;;6.10;99.90;;;;;;2149543;66;20538;-73
2022/01/12 13:57:27;;;;;;;19.92;9.63;;;6.00;99.90;;;;;;2150582;66;20304;-78
2022/01/12 14:00:20;;;;;;;16.80;9.05;;;6.00;99.90;;;;;;2146179;66;20200;-76
2022/01/12 14:03:25;;;;;;;;;;;6.00;99.90;;;;;;2152977;66;20591;-76
2022/01/12 14:06:24;;;;;;;14.27;8.63;;;5.90;99.90;;;;;;2143705;66;20100;-76
2022/01/12 14:09:26;;;;;;;17.98;8.63;;;5.90;99.90;;;;;;2147263;66;20756;-76
2022/01/12 14:12:18;;;;;;;16.13;9.27;;;5.90;99.90;;;;;;2131973;67;20203;-76
2022/01/12 14:15:03;;;;;;;16.67;8.40;;;5.80;99.90;;;;;;2124897;67;20192;-79
2022/01/12 14:17:46;;;;;;;21.40;10.47;;;5.70;99.90;;;;;;2129211;67;20228;-73
2022/01/12 14:20:37;;;;;;;21.60;9.80;;;5.60;99.90;;;;;;2132556;67;20304;-73
2022/01/12 14:23:20;;;;;;;21.23;9.05;;;5.60;99.90;;;;;;2130751;67;20724;-75
2022/01/12 14:26:02;;;;;;;16.45;9.00;;;5.50;99.90;;;;;;2152391;66;20308;-77
2022/01/12 14:28:45;;;;;;;25.58;12.60;;;5.50;99.90;;;;;;2162468;66;20200;-79
2022/01/12 14:31:30;;;;;;;20.58;11.25;;;5.40;99.90;;;;;;2154509;66;20731;-77
2022/01/12 14:34:14;;;;;;;24.48;10.93;;;5.40;99.90;;;;;;2146388;66;20418;-77
2022/01/12 14:36:56;;;;;;;22.17;11.10;;;5.40;99.90;;;;;;2152616;66;20346;-72
2022/01/12 14:39:40;;;;;;;23.75;10.30;;;5.40;99.90;;;;;;2158984;66;20193;-73
2022/01/12 14:42:22;;;;;;;23.13;11.13;;;5.40;99.90;;;;;;2141057;66;20840;-74
2022/01/12 14:45:05;;;;;;;29.23;11.25;;;5.30;99.90;;;;;;2145459;66;20351;-74
2022/01/12 14:47:47;;;;;;;20.20;10.00;;;5.40;99.90;;;;;;2139863;66;20312;-75
2022/01/12 14:50:32;;;;;;;20.92;10.93;;;5.40;99.90;;;;;;2141175;66;20672;-74
2022/01/12 14:53:17;;;;;;;22.13;9.95;;;5.40;99.90;;;;;;2143124;66;20186;-79
2022/01/12 14:56:02;;;;;;;27.33;11.02;;;5.40;99.90;;;;;;2161138;66;20235;-75
2022/01/12 14:58:48;;;;;;;21.08;11.43;;;5.40;99.90;;;;;;2171995;65;20229;-75
2022/01/12 15:01:33;;;;;;;;;;;5.30;99.90;;;;;;2182428;65;20306;-74
2022/01/12 15:04:16;;;;;;;22.45;11.38;;;5.30;99.90;;;;;;2172954;65;20311;-75
2022/01/12 15:07:02;;;;;;;25.70;11.82;;;5.30;99.90;;;;;;2179824;65;20309;-73
2022/01/12 15:09:46;;;;;;;;;;;5.30;99.90;;;;;;1954586;65;15123191;-73
2022/01/12 15:12:34;;;;;;;24.25;11.40;;;5.30;99.90;;;;;;2168650;65;20162;-74
2022/01/12 15:15:19;;;;;;;29.08;11.20;;;5.30;99.90;;;;;;2175665;65;20791;-74
2022/01/12 15:18:01;;;;;;;28.67;12.27;;;5.30;99.90;;;;;;2170855;65;20312;-74
2022/01/12 15:20:41;;;;;;;26.65;12.88;;;5.30;99.90;;;;;;2153600;66;20173;-73
2022/01/12 15:23:20;;;;;;;28.48;13.50;;;5.80;99.90;;;;;;2153613;66;20367;-71